This is the latest recevied weather packets stored in our database for station/object SP6KBU-8. If no packets are shown the sender has not sent any weather packets the latest 10 day(s).
| Time | Temp. | Humidity | Pressure | Rain* | Wind** | Luminosity | Snow |
|---|---|---|---|---|---|---|---|
| 1777846753 | 18.33° C | 35% | 1014.3 hPa | - | - | - | - |
| 1777845854 | 18.33° C | 35% | 1014.6 hPa | - | - | - | - |
| 1777844957 | 18.89° C | 34% | 1014.6 hPa | - | - | - | - |
| 1777844058 | 18.89° C | 34% | 1014.6 hPa | - | - | - | - |
| 1777843158 | 18.89° C | 34% | 1014.6 hPa | - | - | - | - |
| 1777842260 | 18.89° C | 33% | 1014.5 hPa | - | - | - | - |
| 1777841361 | 19.44° C | 32% | 1014.7 hPa | - | - | - | - |
| 1777840462 | 19.44° C | 32% | 1014.9 hPa | - | - | - | - |
| 1777839563 | 19.44° C | 31% | 1015.1 hPa | - | - | - | - |
| 1777838665 | 19.44° C | 30% | 1014.9 hPa | - | - | - | - |
| 1777837765 | 18.89° C | 31% | 1015.1 hPa | - | - | - | - |
| 1777835969 | 17.78° C | 34% | 1015.2 hPa | - | - | - | - |
| 1777835069 | 17.78° C | 33% | 1015.1 hPa | - | - | - | - |
| 1777834170 | 18.33° C | 33% | 1015.1 hPa | - | - | - | - |
| 1777833271 | 19.44° C | 29% | 1014.7 hPa | - | - | - | - |
| 1777832372 | 20.56° C | 29% | 1014.6 hPa | - | - | - | - |
| 1777831474 | 21.11° C | 27% | 1014.6 hPa | - | - | - | - |
| 1777830575 | 21.67° C | 26% | 1014.5 hPa | - | - | - | - |
| 1777829677 | 22.78° C | 26% | 1014.6 hPa | - | - | - | - |
| 1777828778 | 23.33° C | 25% | 1014.6 hPa | - | - | - | - |
| 1777827879 | 23.89° C | 24% | 1014.6 hPa | - | - | - | - |
| 1777826980 | 25° C | 23% | 1014.6 hPa | - | - | - | - |
| 1777826081 | 26.11° C | 21% | 1014.7 hPa | - | - | - | - |
| 1777825183 | 27.78° C | 20% | 1014.8 hPa | - | - | - | - |
| 1777824284 | 28.89° C | 19% | 1014.7 hPa | - | - | - | - |
* Rain since midnight (hover to see other rain measurements)
** Current wind speed in m/s (hover to see current wind gust speed)